Time;durP1;ratioP1;P1;durP2;ratioP2;P2;SDS_P1;SDS_P2;PMS_P1;PMS_P2;Temp;Humidity;BMP_temperature;BMP_pressure;BME280_temperature;BME280_humidity;BME280_pressure;Samples;Min_cycle;Max_cycle;Signal;HPM_P1;HPM_P2
2024/01/11 00:01:46;;;;;;;20.63;12.47;;;-1.10;99.90;;;;;;4954779;28;20221;-50
2024/01/11 00:04:13;;;;;;;21.07;11.93;;;-1.10;99.90;;;;;;4965347;28;20327;-49
2024/01/11 00:06:42;;;;;;;20.93;12.73;;;-1.10;99.90;;;;;;4964576;28;20231;-47
2024/01/11 00:09:09;;;;;;;19.63;12.60;;;-1.10;99.90;;;;;;4961613;28;20215;-50
2024/01/11 00:11:36;;;;;;;23.40;13.33;;;-1.00;99.90;;;;;;4919210;28;20210;-49
2024/01/11 00:14:02;;;;;;;22.20;13.20;;;-1.00;99.90;;;;;;4959961;28;20672;-51
2024/01/11 00:16:31;;;;;;;20.27;12.60;;;-1.00;99.90;;;;;;4958302;28;20208;-48
2024/01/11 00:18:57;;;;;;;22.23;13.07;;;-1.00;99.90;;;;;;4956512;28;20225;-50
2024/01/11 00:21:24;;;;;;;26.03;13.70;;;-1.00;99.90;;;;;;4961041;28;20205;-47
2024/01/11 00:23:51;;;;;;;22.33;13.13;;;-1.00;99.90;;;;;;4963636;28;20727;-46
2024/01/11 00:26:18;;;;;;;23.57;13.60;;;-1.00;99.90;;;;;;4927005;28;20232;-48
2024/01/11 00:28:45;;;;;;;24.60;13.37;;;-1.00;99.90;;;;;;4951550;28;20676;-47
2024/01/11 00:31:12;;;;;;;21.87;12.53;;;-1.00;99.90;;;;;;4961815;28;20193;-48
2024/01/11 00:33:40;;;;;;;24.07;13.30;;;-1.10;99.90;;;;;;4961347;28;20567;-48
2024/01/11 00:36:07;;;;;;;24.30;13.83;;;-1.10;99.90;;;;;;4961064;28;20267;-48
2024/01/11 00:38:34;;;;;;;23.50;13.67;;;-1.10;99.90;;;;;;4961614;28;20193;-50
2024/01/11 00:41:01;;;;;;;28.77;14.00;;;-1.10;99.90;;;;;;4955200;28;20202;-48
2024/01/11 00:43:27;;;;;;;25.70;15.00;;;-1.20;99.90;;;;;;4925118;28;20223;-52
2024/01/11 00:45:54;;;;;;;25.07;14.47;;;-1.20;99.90;;;;;;4963701;28;20268;-47
2024/01/11 00:48:21;;;;;;;22.30;13.63;;;-1.20;99.90;;;;;;4962743;28;20370;-50
2024/01/11 00:50:49;;;;;;;25.70;14.77;;;-1.20;99.90;;;;;;4957406;28;20220;-50
2024/01/11 00:53:16;;;;;;;25.13;14.17;;;-1.20;99.90;;;;;;4955743;28;20242;-48
2024/01/11 00:55:43;;;;;;;27.80;13.97;;;-1.20;99.90;;;;;;4959331;28;20905;-50
2024/01/11 00:58:10;;;;;;;24.13;14.00;;;-1.20;99.90;;;;;;4922757;28;20280;-49
2024/01/11 01:00:37;;;;;;;21.63;13.23;;;-1.20;99.90;;;;;;4951889;28;20287;-48
2024/01/11 01:03:04;;;;;;;25.37;14.97;;;-1.10;99.90;;;;;;4955174;28;21019;-51
2024/01/11 01:05:31;;;;;;;25.93;13.27;;;-1.10;99.90;;;;;;4948904;28;20600;-47
2024/01/11 01:07:59;;;;;;;27.53;15.30;;;-1.10;99.90;;;;;;4953810;28;20213;-49
2024/01/11 01:10:26;;;;;;;25.27;13.87;;;-1.10;99.90;;;;;;4961189;28;20209;-48
2024/01/11 01:12:53;;;;;;;24.47;13.83;;;-1.10;99.90;;;;;;4932475;28;22996;-52
2024/01/11 01:15:19;;;;;;;26.40;14.57;;;-1.10;99.90;;;;;;4953541;28;20200;-50
2024/01/11 01:17:46;;;;;;;24.77;14.60;;;-1.10;99.90;;;;;;4961483;28;20195;-48
2024/01/11 01:20:14;;;;;;;31.40;16.23;;;-1.20;99.90;;;;;;4947344;28;20220;-50
2024/01/11 01:22:41;;;;;;;25.87;14.70;;;-1.20;99.90;;;;;;4951603;28;20207;-44
2024/01/11 01:25:09;;;;;;;27.53;15.47;;;-1.20;99.90;;;;;;4962244;28;20221;-45
2024/01/11 01:27:36;;;;;;;29.40;16.17;;;-1.20;99.90;;;;;;4962670;28;20205;-46
2024/01/11 01:30:03;;;;;;;28.87;14.27;;;-1.30;99.90;;;;;;4922750;28;20216;-46
2024/01/11 01:32:31;;;;;;;29.40;14.10;;;-1.30;99.90;;;;;;4963713;28;20295;-45
2024/01/11 01:34:58;;;;;;;31.67;16.00;;;-1.20;99.90;;;;;;4953936;28;20231;-46
2024/01/11 01:37:24;;;;;;;34.83;15.07;;;-1.20;99.90;;;;;;4950576;28;20272;-47
2024/01/11 01:39:51;;;;;;;27.53;15.60;;;-1.20;99.90;;;;;;4958928;28;20196;-51
2024/01/11 01:42:20;;;;;;;28.63;15.47;;;-1.20;99.90;;;;;;4963728;28;20279;-46
2024/01/11 01:44:47;;;;;;;29.80;15.87;;;-1.20;99.90;;;;;;4931841;28;20215;-46
2024/01/11 01:47:14;;;;;;;33.47;17.33;;;-1.30;99.90;;;;;;4951194;28;20232;-45
2024/01/11 01:49:41;;;;;;;30.50;15.43;;;-1.40;99.90;;;;;;4953087;28;20204;-47
2024/01/11 01:52:09;;;;;;;32.67;17.20;;;-1.40;99.90;;;;;;4954960;28;20273;-50
2024/01/11 01:54:36;;;;;;;30.40;16.77;;;-1.40;99.90;;;;;;4966097;28;20883;-45
2024/01/11 01:57:04;;;;;;;30.20;16.00;;;-1.40;99.90;;;;;;4961636;28;20212;-53
2024/01/11 01:59:33;;;;;;;33.10;16.60;;;-1.40;99.90;;;;;;4956656;28;20192;-45
2024/01/11 02:02:00;;;;;;;31.63;17.17;;;-1.40;99.90;;;;;;4929755;28;20196;-49
2024/01/11 02:04:27;;;;;;;32.10;15.60;;;-1.40;99.90;;;;;;4955648;28;20196;-52
2024/01/11 02:06:55;;;;;;;31.80;16.50;;;-1.40;99.90;;;;;;4958955;28;20218;-50
2024/01/11 02:09:22;;;;;;;34.40;17.67;;;-1.40;99.90;;;;;;4961932;28;20201;-47
2024/01/11 02:11:49;;;;;;;30.70;16.70;;;-1.40;99.90;;;;;;4959916;28;20983;-48
2024/01/11 02:14:16;;;;;;;31.50;16.47;;;-1.40;99.90;;;;;;4967809;28;20595;-50
2024/01/11 02:16:44;;;;;;;35.83;16.53;;;-1.30;99.90;;;;;;4919272;28;20217;-46
2024/01/11 02:19:14;;;;;;;31.80;15.97;;;-1.30;99.90;;;;;;4961798;28;20200;-51
2024/01/11 02:21:43;;;;;;;35.03;17.63;;;-1.40;99.90;;;;;;4964502;28;20248;-50
2024/01/11 02:24:11;;;;;;;33.77;16.37;;;-1.30;99.90;;;;;;4955365;28;20705;-48
2024/01/11 02:26:58;;;;;;;34.47;16.40;;;-1.30;99.90;;;;;;4960700;28;20228;-51
2024/01/11 02:29:24;;;;;;;33.93;16.53;;;-1.30;99.90;;;;;;4962828;28;21023;-51
2024/01/11 02:31:51;;;;;;;30.20;15.73;;;-1.30;99.90;;;;;;4917184;28;20397;-50
2024/01/11 02:34:19;;;;;;;35.23;16.40;;;-1.30;99.90;;;;;;4970660;28;20206;-48
2024/01/11 02:36:46;;;;;;;32.43;16.33;;;-1.30;99.90;;;;;;4962083;28;20262;-49
2024/01/11 02:39:17;;;;;;;37.80;18.00;;;-1.30;99.90;;;;;;4964655;28;20346;-50
2024/01/11 02:41:44;;;;;;;32.50;16.20;;;-1.30;99.90;;;;;;4954217;28;20254;-45
2024/01/11 02:44:11;;;;;;;33.87;17.07;;;-1.30;99.90;;;;;;4959685;28;20201;-48
2024/01/11 02:46:38;;;;;;;32.70;15.90;;;-1.30;99.90;;;;;;4929836;28;20295;-45
2024/01/11 02:49:05;;;;;;;38.87;17.83;;;-1.30;99.90;;;;;;4957683;28;20912;-50
2024/01/11 02:51:32;;;;;;;31.90;16.20;;;-1.30;99.90;;;;;;4964915;28;20209;-47
2024/01/11 02:53:59;;;;;;;28.57;14.90;;;-1.30;99.90;;;;;;4962726;28;20204;-47
2024/01/11 02:56:27;;;;;;;31.80;15.50;;;-1.30;99.90;;;;;;4964199;28;20738;-50
2024/01/11 02:58:54;;;;;;;30.43;15.90;;;-1.30;99.90;;;;;;4953394;28;20263;-47
2024/01/11 03:01:21;;;;;;;27.83;14.20;;;-1.30;99.90;;;;;;4955667;28;20201;-48
2024/01/11 03:03:48;;;;;;;27.87;15.27;;;-1.30;99.90;;;;;;4923042;28;20778;-48
2024/01/11 03:06:17;;;;;;;28.13;15.07;;;-1.30;99.90;;;;;;4964224;28;20335;-49
2024/01/11 03:08:44;;;;;;;30.53;15.57;;;-1.30;99.90;;;;;;4963456;28;20201;-49
2024/01/11 03:11:10;;;;;;;29.20;15.33;;;-1.30;99.90;;;;;;4954520;28;20621;-48
2024/01/11 03:13:39;;;;;;;31.13;15.50;;;-1.30;99.90;;;;;;4957093;28;20280;-47
2024/01/11 03:16:06;;;;;;;27.83;14.33;;;-1.20;99.90;;;;;;4962796;28;20205;-47
2024/01/11 03:18:33;;;;;;;31.87;15.50;;;-1.30;99.90;;;;;;4935535;28;20658;-48
2024/01/11 03:21:00;;;;;;;27.43;14.83;;;-1.30;99.90;;;;;;4952079;28;20221;-47
2024/01/11 03:23:26;;;;;;;25.67;15.13;;;-1.30;99.90;;;;;;4928470;28;1083459;-48
2024/01/11 03:25:53;;;;;;;26.03;12.93;;;-1.30;99.90;;;;;;4948563;28;20242;-48
2024/01/11 03:28:20;;;;;;;27.50;14.70;;;-1.30;99.90;;;;;;4953685;28;20271;-50
2024/01/11 03:30:48;;;;;;;26.67;15.40;;;-1.30;99.90;;;;;;4965420;28;21036;-51
2024/01/11 03:33:15;;;;;;;27.67;15.10;;;-1.30;99.90;;;;;;4937009;28;20232;-46
2024/01/11 03:35:43;;;;;;;26.77;14.53;;;-1.30;99.90;;;;;;4953271;28;20238;-48
2024/01/11 03:38:10;;;;;;;27.33;14.40;;;-1.30;99.90;;;;;;4964970;28;20649;-46
2024/01/11 03:40:37;;;;;;;27.57;15.10;;;-1.40;99.90;;;;;;4953545;28;20206;-48
2024/01/11 03:43:04;;;;;;;26.10;15.83;;;-1.40;99.90;;;;;;4956163;28;20262;-50
2024/01/11 03:45:31;;;;;;;26.07;14.00;;;-1.30;99.90;;;;;;4962716;28;20248;-47
2024/01/11 03:47:59;;;;;;;25.57;14.63;;;-1.30;99.90;;;;;;4938378;28;20754;-48
2024/01/11 03:50:26;;;;;;;24.17;14.30;;;-1.30;99.90;;;;;;4955065;28;20193;-46
2024/01/11 03:52:53;;;;;;;25.37;14.20;;;-1.30;99.90;;;;;;4959021;28;20209;-48
2024/01/11 03:55:20;;;;;;;21.93;13.90;;;-1.40;99.90;;;;;;4957155;28;20192;-45
2024/01/11 03:57:47;;;;;;;25.63;14.33;;;-1.40;99.90;;;;;;4955771;28;20200;-46
2024/01/11 04:00:15;;;;;;;26.50;14.17;;;-1.40;99.90;;;;;;4963672;28;20256;-46
2024/01/11 04:02:41;;;;;;;29.40;16.10;;;-1.40;99.90;;;;;;4962701;28;20189;-51
2024/01/11 04:05:10;;;;;;;27.47;15.10;;;-1.40;99.90;;;;;;4936900;28;20390;-52
2024/01/11 04:07:37;;;;;;;26.77;15.53;;;-1.40;99.90;;;;;;4944155;28;20261;-52
2024/01/11 04:10:04;;;;;;;26.37;14.47;;;-1.40;99.90;;;;;;4959295;28;20570;-50
2024/01/11 04:12:31;;;;;;;28.23;14.90;;;-1.40;99.90;;;;;;4954874;28;20215;-48
2024/01/11 04:14:58;;;;;;;25.80;13.47;;;-1.40;99.90;;;;;;4966179;28;20275;-47
2024/01/11 04:17:25;;;;;;;29.37;15.43;;;-1.40;99.90;;;;;;4963270;28;20550;-47
2024/01/11 04:19:51;;;;;;;27.47;14.60;;;-1.40;99.90;;;;;;4935348;28;22263;-47
2024/01/11 04:22:20;;;;;;;25.17;14.13;;;-1.50;99.90;;;;;;4946023;28;20207;-50
2024/01/11 04:24:46;;;;;;;25.63;14.40;;;-1.40;99.90;;;;;;4959423;28;20210;-48
2024/01/11 04:27:13;;;;;;;28.17;14.70;;;-1.40;99.90;;;;;;4964418;28;20643;-49
2024/01/11 04:29:40;;;;;;;34.53;17.40;;;-1.40;99.90;;;;;;4953966;28;20271;-50
2024/01/11 04:32:07;;;;;;;26.70;14.87;;;-1.40;99.90;;;;;;4964272;28;20216;-50
2024/01/11 04:34:33;;;;;;;28.30;15.67;;;-1.30;99.90;;;;;;4929766;28;20208;-44
2024/01/11 04:37:00;;;;;;;27.27;16.37;;;-1.30;99.90;;;;;;4961207;28;20332;-48
2024/01/11 04:39:29;;;;;;;27.80;14.17;;;-1.40;99.90;;;;;;4973645;28;20236;-48
2024/01/11 04:41:55;;;;;;;29.47;15.30;;;-1.40;99.90;;;;;;4965635;28;20206;-48
2024/01/11 04:44:22;;;;;;;27.67;13.37;;;-1.40;99.90;;;;;;4957319;28;20263;-44
2024/01/11 04:46:49;;;;;;;25.37;13.97;;;-1.40;99.90;;;;;;4963114;28;20220;-46
2024/01/11 04:49:16;;;;;;;27.90;14.60;;;-1.40;99.90;;;;;;4958248;28;20290;-47
2024/01/11 04:51:42;;;;;;;29.67;14.63;;;-1.40;99.90;;;;;;4929775;28;20220;-48
2024/01/11 04:54:09;;;;;;;27.87;13.90;;;-1.40;99.90;;;;;;4954746;28;20213;-44
2024/01/11 04:56:37;;;;;;;27.73;14.07;;;-1.50;99.90;;;;;;4960715;28;20211;-50
2024/01/11 04:59:04;;;;;;;26.73;13.63;;;-1.40;99.90;;;;;;4956068;28;21761;-50
2024/01/11 05:01:31;;;;;;;29.40;13.83;;;-1.40;99.90;;;;;;4959865;28;20286;-47
2024/01/11 05:03:58;;;;;;;27.00;12.73;;;-1.40;99.90;;;;;;4956047;28;20204;-48
2024/01/11 05:06:25;;;;;;;26.10;14.17;;;-1.40;99.90;;;;;;4936383;28;20675;-44
2024/01/11 05:08:53;;;;;;;30.77;13.60;;;-1.40;99.90;;;;;;4946863;28;20213;-49
2024/01/11 05:11:21;;;;;;;32.53;14.67;;;-1.40;99.90;;;;;;4963060;28;20201;-46
2024/01/11 05:13:49;;;;;;;27.40;14.07;;;-1.40;99.90;;;;;;4963326;28;20882;-47
2024/01/11 05:16:20;;;;;;;29.33;13.97;;;-1.40;99.90;;;;;;4941254;28;20633;-46
2024/01/11 05:18:47;;;;;;;27.27;14.30;;;-1.40;99.90;;;;;;4953868;28;20196;-47
2024/01/11 05:21:14;;;;;;;32.40;15.07;;;-1.40;99.90;;;;;;4948905;28;20219;-47
2024/01/11 05:23:42;;;;;;;28.77;13.97;;;-1.40;99.90;;;;;;4927117;28;20588;-48
2024/01/11 05:26:09;;;;;;;32.27;15.17;;;-1.30;99.90;;;;;;4952839;28;20236;-47
2024/01/11 05:28:38;;;;;;;30.07;15.57;;;-1.30;99.90;;;;;;4964066;28;20269;-49
2024/01/11 05:31:08;;;;;;;35.27;16.20;;;-1.40;99.90;;;;;;4944110;28;20216;-45
2024/01/11 05:33:34;;;;;;;31.37;14.17;;;-1.30;99.90;;;;;;4958907;28;20198;-46
2024/01/11 05:36:02;;;;;;;32.70;14.33;;;-1.30;99.90;;;;;;4958643;28;20228;-49
2024/01/11 05:38:29;;;;;;;28.07;13.67;;;-1.30;99.90;;;;;;4925974;28;20258;-45
2024/01/11 05:40:56;;;;;;;31.73;14.07;;;-1.30;99.90;;;;;;4956248;28;20557;-45
2024/01/11 05:43:23;;;;;;;29.53;14.20;;;-1.30;99.90;;;;;;4959932;28;20822;-45
2024/01/11 05:45:50;;;;;;;25.60;11.23;;;-1.30;99.90;;;;;;4952993;28;20220;-44
2024/01/11 05:48:19;;;;;;;21.67;11.27;;;-1.30;99.90;;;;;;4954502;28;20219;-46
2024/01/11 05:50:46;;;;;;;18.77;10.30;;;-1.30;99.90;;;;;;4953285;28;20196;-44
2024/01/11 05:53:13;;;;;;;22.63;9.17;;;-1.30;99.90;;;;;;4934503;28;20217;-43
2024/01/11 05:55:40;;;;;;;15.67;8.93;;;-1.30;99.90;;;;;;4945239;28;20307;-44
2024/01/11 05:58:07;;;;;;;16.87;8.40;;;-1.30;99.90;;;;;;4954685;28;20266;-46
2024/01/11 06:00:34;;;;;;;21.73;8.40;;;-1.30;99.90;;;;;;4956620;28;20257;-44
2024/01/11 06:03:01;;;;;;;20.50;9.00;;;-1.30;99.90;;;;;;4959759;28;20904;-45
2024/01/11 06:05:29;;;;;;;16.70;8.13;;;-1.30;99.90;;;;;;4963396;28;20247;-46
2024/01/11 06:07:56;;;;;;;18.77;7.83;;;-1.30;99.90;;;;;;4958901;28;20212;-47
2024/01/11 06:10:23;;;;;;;23.40;10.00;;;-1.20;99.90;;;;;;4924826;28;20213;-49
2024/01/11 06:12:49;;;;;;;16.80;8.77;;;-1.20;99.90;;;;;;4952353;28;20200;-46
2024/01/11 06:15:16;;;;;;;20.17;8.87;;;-1.30;99.90;;;;;;4958543;28;20260;-48
2024/01/11 06:17:43;;;;;;;20.40;8.50;;;-1.30;99.90;;;;;;4959121;28;20201;-47
2024/01/11 06:20:11;;;;;;;24.23;9.60;;;-1.20;99.90;;;;;;4955318;28;20205;-45
2024/01/11 06:22:39;;;;;;;39.13;11.80;;;-1.30;99.90;;;;;;4962766;28;20208;-44
2024/01/11 06:25:07;;;;;;;22.40;10.33;;;-1.30;99.90;;;;;;4930937;28;20228;-44
2024/01/11 06:27:34;;;;;;;36.83;10.47;;;-1.20;99.90;;;;;;4943026;28;20752;-44
2024/01/11 06:30:01;;;;;;;38.07;12.30;;;-1.20;99.90;;;;;;4956436;28;20193;-47
2024/01/11 06:32:28;;;;;;;33.30;12.13;;;-1.30;99.90;;;;;;4962936;28;20199;-48
2024/01/11 06:34:55;;;;;;;35.40;12.20;;;-1.20;99.90;;;;;;4951215;28;20201;-49
2024/01/11 06:37:22;;;;;;;26.97;12.00;;;-1.20;99.90;;;;;;4961954;28;20301;-47
2024/01/11 06:39:51;;;;;;;26.33;10.57;;;-1.20;99.90;;;;;;4920030;28;20210;-45
2024/01/11 06:42:18;;;;;;;39.97;11.77;;;-1.20;99.90;;;;;;4939311;28;20283;-49
2024/01/11 06:44:44;;;;;;;41.03;11.43;;;-1.20;99.90;;;;;;4952278;28;20205;-46
2024/01/11 06:47:11;;;;;;;38.87;11.73;;;-1.20;99.90;;;;;;4953154;28;20247;-50
2024/01/11 06:49:39;;;;;;;36.70;10.33;;;-1.20;99.90;;;;;;4944939;28;20215;-44
2024/01/11 06:52:06;;;;;;;29.90;10.10;;;-1.10;99.90;;;;;;4955652;28;20269;-47
2024/01/11 06:54:33;;;;;;;27.97;10.63;;;-1.20;99.90;;;;;;4941615;28;20572;-48
2024/01/11 06:57:01;;;;;;;26.50;10.77;;;-1.10;99.90;;;;;;4932084;28;20238;-48
2024/01/11 06:59:28;;;;;;;33.93;11.23;;;-1.10;99.90;;;;;;4949198;28;20208;-45
2024/01/11 07:01:55;;;;;;;25.53;9.73;;;-1.10;99.90;;;;;;4961022;28;20208;-46
2024/01/11 07:04:22;;;;;;;29.37;10.07;;;-1.10;99.90;;;;;;4964114;28;20196;-46
2024/01/11 07:06:48;;;;;;;28.37;10.07;;;-1.10;99.90;;;;;;4953665;28;20756;-44
2024/01/11 07:09:16;;;;;;;24.77;8.43;;;-1.10;99.90;;;;;;4960433;28;20219;-44
2024/01/11 07:11:44;;;;;;;33.00;10.00;;;-1.10;99.90;;;;;;4926003;28;20228;-46
2024/01/11 07:14:12;;;;;;;25.23;8.93;;;-1.10;99.90;;;;;;4945528;28;20650;-47
2024/01/11 07:16:39;;;;;;;32.03;7.77;;;-1.00;99.90;;;;;;4955476;28;20310;-47
2024/01/11 07:19:06;;;;;;;30.13;8.10;;;-1.00;99.90;;;;;;4948061;28;20258;-45
2024/01/11 07:21:32;;;;;;;18.33;6.63;;;-1.00;99.90;;;;;;4958220;28;20200;-46
2024/01/11 07:23:59;;;;;;;19.50;7.10;;;-1.00;99.90;;;;;;4957414;28;20207;-44
2024/01/11 07:26:26;;;;;;;20.93;7.20;;;-1.00;99.90;;;;;;4957200;28;20215;-44
2024/01/11 07:28:55;;;;;;;16.57;7.40;;;-1.00;99.90;;;;;;4934735;28;20236;-44
2024/01/11 07:31:23;;;;;;;19.80;7.10;;;-0.90;99.90;;;;;;4950925;28;20295;-46
2024/01/11 07:33:50;;;;;;;17.53;6.83;;;-0.90;99.90;;;;;;4957566;28;20207;-42
2024/01/11 07:36:17;;;;;;;30.73;7.23;;;-0.90;99.90;;;;;;4942446;28;20228;-44
2024/01/11 07:38:44;;;;;;;22.73;7.13;;;-0.90;99.90;;;;;;4962972;28;20256;-44
2024/01/11 07:41:11;;;;;;;15.47;6.67;;;-0.90;99.90;;;;;;4960146;28;20278;-45
2024/01/11 07:43:38;;;;;;;23.63;6.80;;;-0.90;99.90;;;;;;4938934;28;20292;-47
2024/01/11 07:46:07;;;;;;;26.40;6.67;;;-0.80;99.90;;;;;;4957944;28;20228;-48
2024/01/11 07:48:35;;;;;;;17.97;6.87;;;-0.80;99.90;;;;;;4946889;28;20224;-48
2024/01/11 07:51:02;;;;;;;20.87;7.77;;;-0.80;99.90;;;;;;4955524;28;20209;-44
2024/01/11 07:53:29;;;;;;;15.30;6.93;;;-0.80;99.90;;;;;;4955641;28;20221;-45
2024/01/11 07:55:58;;;;;;;12.57;6.27;;;-0.80;99.90;;;;;;4963476;28;20224;-44
2024/01/11 07:58:25;;;;;;;16.47;6.80;;;-0.70;99.90;;;;;;4935356;28;20233;-48
2024/01/11 08:00:52;;;;;;;17.43;7.43;;;-0.70;99.90;;;;;;4962329;28;20632;-44
2024/01/11 08:03:18;;;;;;;15.27;6.30;;;-0.70;99.90;;;;;;4939880;28;20208;-50
2024/01/11 08:05:50;;;;;;;16.10;6.93;;;-0.70;99.90;;;;;;4954978;28;20228;-46
2024/01/11 08:08:18;;;;;;;15.37;5.87;;;-0.70;99.90;;;;;;4957805;28;21339;-46
2024/01/11 08:10:44;;;;;;;17.50;6.53;;;-0.70;99.90;;;;;;4967823;28;20205;-48
2024/01/11 08:13:13;;;;;;;16.67;7.47;;;-0.60;99.90;;;;;;4937977;28;20331;-49
2024/01/11 08:15:39;;;;;;;13.57;6.93;;;-0.60;99.90;;;;;;4963556;28;20324;-46
2024/01/11 08:18:06;;;;;;;20.47;7.90;;;-0.60;99.90;;;;;;4942482;28;20611;-44
2024/01/11 08:20:34;;;;;;;16.33;7.00;;;-0.60;99.90;;;;;;4948508;28;20226;-47
2024/01/11 08:23:03;;;;;;;14.00;6.60;;;-0.50;99.90;;;;;;4957175;28;20559;-46
2024/01/11 08:25:30;;;;;;;13.10;6.27;;;-0.50;99.90;;;;;;4968110;28;20588;-48
2024/01/11 08:27:57;;;;;;;15.53;6.43;;;-0.40;99.90;;;;;;4967193;28;20215;-46
2024/01/11 08:30:25;;;;;;;14.63;5.73;;;-0.40;99.90;;;;;;4928335;28;20236;-46
2024/01/11 08:32:51;;;;;;;14.13;6.30;;;-0.40;99.90;;;;;;4953203;28;20788;-48
2024/01/11 08:35:18;;;;;;;13.27;6.20;;;-0.40;99.90;;;;;;4950946;28;20208;-49
2024/01/11 08:37:45;;;;;;;11.83;5.53;;;-0.40;99.90;;;;;;4959862;28;20202;-46
2024/01/11 08:40:13;;;;;;;11.73;5.83;;;-0.40;99.90;;;;;;4952119;28;20211;-46
2024/01/11 08:42:41;;;;;;;19.00;6.50;;;-0.30;99.90;;;;;;4964762;28;20251;-46
2024/01/11 08:45:09;;;;;;;12.97;5.67;;;-0.30;99.90;;;;;;4919863;28;20206;-48
2024/01/11 08:47:38;;;;;;;11.57;5.60;;;-0.20;99.90;;;;;;4949818;28;20574;-46
2024/01/11 08:50:06;;;;;;;15.97;6.13;;;-0.30;99.90;;;;;;4948831;28;20300;-45
2024/01/11 08:52:33;;;;;;;12.10;6.00;;;-0.30;99.90;;;;;;4959069;28;20211;-46
2024/01/11 08:55:00;;;;;;;14.13;6.50;;;-0.30;99.90;;;;;;4958728;28;20633;-44
2024/01/11 08:57:28;;;;;;;16.43;6.33;;;-0.30;99.90;;;;;;4961091;28;20228;-45
2024/01/11 08:59:55;;;;;;;16.53;6.67;;;-0.20;99.90;;;;;;4935453;28;20210;-44
2024/01/11 09:02:22;;;;;;;17.40;6.70;;;-0.20;99.90;;;;;;4937467;28;20209;-49
2024/01/11 09:04:49;;;;;;;16.43;6.90;;;-0.10;99.90;;;;;;4958928;28;20223;-46
2024/01/11 09:07:16;;;;;;;13.53;6.57;;;-0.20;99.90;;;;;;4957671;28;20233;-48
2024/01/11 09:09:43;;;;;;;14.57;6.33;;;-0.10;99.90;;;;;;4963769;28;20205;-49
2024/01/11 09:12:09;;;;;;;19.53;8.47;;;-0.10;99.90;;;;;;4949445;28;20202;-45
2024/01/11 09:14:39;;;;;;;21.33;8.70;;;-0.10;99.90;;;;;;4952218;28;20197;-47
2024/01/11 09:17:06;;;;;;;24.00;8.63;;;-0.10;99.90;;;;;;4923011;28;20253;-47
2024/01/11 09:19:33;;;;;;;21.77;8.80;;;-0.10;99.90;;;;;;4959977;28;20186;-51
2024/01/11 09:22:00;;;;;;;18.17;8.17;;;0.00;99.90;;;;;;4960555;28;20205;-43
2024/01/11 09:24:27;;;;;;;20.73;9.43;;;0.00;99.90;;;;;;4952258;28;20698;-48
2024/01/11 09:26:54;;;;;;;16.47;8.67;;;0.00;99.90;;;;;;4947070;28;20237;-46
2024/01/11 09:29:21;;;;;;;23.73;10.00;;;0.00;99.90;;;;;;4952331;28;20230;-48
2024/01/11 09:31:49;;;;;;;25.63;9.10;;;0.00;99.90;;;;;;4937147;28;20235;-46
2024/01/11 09:34:16;;;;;;;22.17;9.53;;;0.10;99.90;;;;;;4948874;28;20268;-50
2024/01/11 09:36:45;;;;;;;20.93;8.10;;;0.10;99.90;;;;;;4962667;28;20386;-50
2024/01/11 09:39:13;;;;;;;30.03;9.07;;;0.10;99.90;;;;;;4950364;28;20288;-45
2024/01/11 09:41:44;;;;;;;23.10;9.07;;;0.10;99.90;;;;;;4948156;28;20354;-49
2024/01/11 09:44:11;;;;;;;24.90;9.83;;;0.20;99.90;;;;;;4958230;28;20296;-47
2024/01/11 09:46:38;;;;;;;24.63;9.40;;;0.20;99.90;;;;;;4953706;28;20240;-49
2024/01/11 09:49:08;;;;;;;27.73;9.43;;;0.20;99.90;;;;;;4920074;28;20233;-46
2024/01/11 09:51:38;;;;;;;27.43;9.37;;;0.20;99.90;;;;;;4964366;28;20644;-45
2024/01/11 09:54:07;;;;;;;25.20;9.50;;;0.20;99.90;;;;;;4953035;28;20209;-45
2024/01/11 09:56:35;;;;;;;24.33;9.83;;;0.30;99.90;;;;;;4949418;28;20277;-49
2024/01/11 09:59:05;;;;;;;27.67;10.07;;;0.30;99.90;;;;;;4954564;28;20209;-50
2024/01/11 10:01:32;;;;;;;23.43;9.83;;;0.30;99.90;;;;;;4953508;28;20564;-45
2024/01/11 10:04:00;;;;;;;14.83;7.20;;;0.30;99.90;;;;;;4922431;28;20720;-46
2024/01/11 10:06:28;;;;;;;23.10;9.33;;;0.30;99.90;;;;;;4964058;28;20236;-46
2024/01/11 10:08:55;;;;;;;28.47;9.37;;;0.40;99.90;;;;;;4953877;28;20242;-47
2024/01/11 10:11:22;;;;;;;27.17;9.77;;;0.40;99.90;;;;;;4952978;28;20206;-45
2024/01/11 10:13:49;;;;;;;25.77;9.37;;;0.40;99.90;;;;;;4955748;28;20201;-50
2024/01/11 10:16:16;;;;;;;26.57;9.10;;;0.40;99.90;;;;;;4953994;28;20264;-47
2024/01/11 10:18:42;;;;;;;22.50;8.87;;;0.40;99.90;;;;;;4924800;28;20206;-48
2024/01/11 10:21:10;;;;;;;21.77;9.47;;;0.40;99.90;;;;;;4954434;28;20994;-47
2024/01/11 10:23:39;;;;;;;22.57;8.57;;;0.50;99.90;;;;;;4956360;28;20205;-47
2024/01/11 10:26:07;;;;;;;22.40;8.27;;;0.50;99.90;;;;;;4953305;28;20229;-49
2024/01/11 10:28:37;;;;;;;23.50;7.07;;;0.50;99.90;;;;;;4950322;28;20218;-51
2024/01/11 10:31:05;;;;;;;18.43;7.43;;;0.50;99.90;;;;;;4954407;28;20320;-49
2024/01/11 10:33:34;;;;;;;30.13;9.30;;;0.50;99.90;;;;;;4936889;28;20214;-46
2024/01/11 10:36:01;;;;;;;16.97;7.13;;;0.40;99.90;;;;;;4944268;28;20222;-48
2024/01/11 10:38:31;;;;;;;14.87;6.87;;;0.50;99.90;;;;;;4959854;28;20198;-49
2024/01/11 10:41:01;;;;;;;17.70;7.80;;;0.50;99.90;;;;;;4958370;28;20194;-44
2024/01/11 10:43:30;;;;;;;19.20;8.10;;;0.60;99.90;;;;;;4964513;28;20551;-48
2024/01/11 10:46:03;;;;;;;18.50;7.67;;;0.60;99.90;;;;;;4955928;28;20713;-51
2024/01/11 10:48:31;;;;;;;22.03;8.37;;;0.60;99.90;;;;;;4961406;28;20322;-49
2024/01/11 10:51:02;;;;;;;20.30;7.43;;;0.60;99.90;;;;;;4919262;28;20212;-45
2024/01/11 10:53:37;;;;;;;22.47;7.43;;;0.60;99.90;;;;;;4964764;28;20718;-48
2024/01/11 10:56:07;;;;;;;16.80;8.10;;;0.60;99.90;;;;;;4963993;28;20221;-50
2024/01/11 10:58:36;;;;;;;24.20;7.63;;;0.70;99.90;;;;;;4960131;28;20780;-49
2024/01/11 11:01:04;;;;;;;22.40;8.33;;;0.70;99.90;;;;;;4963342;28;20740;-47
2024/01/11 11:03:32;;;;;;;22.73;7.90;;;0.70;99.90;;;;;;4946197;28;20221;-48
2024/01/11 11:06:01;;;;;;;20.00;7.87;;;0.70;99.90;;;;;;4923916;28;21438;-50
2024/01/11 11:08:28;;;;;;;23.93;8.07;;;0.80;99.90;;;;;;4962435;28;20225;-50
2024/01/11 11:10:57;;;;;;;16.97;8.20;;;0.70;99.90;;;;;;4961296;28;20298;-46
2024/01/11 11:13:26;;;;;;;20.27;8.63;;;0.80;99.90;;;;;;4957361;28;20217;-46
2024/01/11 11:15:53;;;;;;;20.50;7.63;;;0.80;99.90;;;;;;4956332;28;20358;-46
2024/01/11 11:18:21;;;;;;;19.13;8.30;;;0.90;99.90;;;;;;4950452;28;20281;-47
2024/01/11 11:20:48;;;;;;;27.40;8.67;;;0.80;99.90;;;;;;4934835;28;20240;-46
2024/01/11 11:23:18;;;;;;;17.60;7.40;;;0.90;99.90;;;;;;4953036;28;20276;-46
2024/01/11 11:25:47;;;;;;;21.90;8.03;;;1.00;99.90;;;;;;4964235;28;20233;-48
2024/01/11 11:28:15;;;;;;;21.60;9.03;;;1.00;99.90;;;;;;4959518;28;20210;-50
2024/01/11 11:30:45;;;;;;;22.77;9.50;;;1.00;99.90;;;;;;4952622;28;20217;-50
2024/01/11 11:33:16;;;;;;;19.33;8.00;;;1.00;99.90;;;;;;4951905;28;20205;-47
2024/01/11 11:35:43;;;;;;;16.93;7.17;;;1.00;99.90;;;;;;4935548;28;20229;-47
2024/01/11 11:38:18;;;;;;;19.93;9.00;;;1.00;99.90;;;;;;4954552;28;20561;-47
2024/01/11 11:40:48;;;;;;;21.63;9.40;;;1.00;99.90;;;;;;4961948;28;20280;-46
2024/01/11 11:43:17;;;;;;;25.50;10.30;;;1.00;99.90;;;;;;4956336;28;20213;-46
2024/01/11 11:45:47;;;;;;;28.33;10.17;;;1.00;99.90;;;;;;4955579;28;20296;-48
2024/01/11 11:48:49;;;;;;;22.93;9.00;;;1.00;99.90;;;;;;4947339;28;20226;-48
2024/01/11 11:51:17;;;;;;;22.43;9.97;;;1.00;99.90;;;;;;4941230;28;20212;-51
2024/01/11 11:53:45;;;;;;;17.93;8.23;;;1.00;99.90;;;;;;4959110;28;20935;-49
2024/01/11 11:56:14;;;;;;;20.83;8.80;;;1.10;99.90;;;;;;4964586;28;20698;-49
2024/01/11 11:58:42;;;;;;;20.63;8.33;;;1.10;99.90;;;;;;4951823;28;20209;-49
2024/01/11 12:01:11;;;;;;;21.93;9.33;;;1.10;99.90;;;;;;4959195;28;20230;-51
2024/01/11 12:03:39;;;;;;;21.57;9.17;;;1.10;99.90;;;;;;4949887;28;20206;-47
2024/01/11 12:06:08;;;;;;;23.57;9.07;;;1.10;99.90;;;;;;4965171;28;20230;-50
2024/01/11 12:08:35;;;;;;;19.70;9.50;;;1.20;99.90;;;;;;4925669;28;20210;-49
2024/01/11 12:11:03;;;;;;;22.77;10.10;;;1.20;99.90;;;;;;4962640;28;20230;-48
2024/01/11 12:13:30;;;;;;;26.77;9.70;;;1.20;99.90;;;;;;4958305;28;20881;-51
2024/01/11 12:15:58;;;;;;;18.80;8.97;;;1.20;99.90;;;;;;4956470;28;20702;-46
2024/01/11 12:18:27;;;;;;;23.97;11.23;;;1.30;99.90;;;;;;4949372;28;20221;-52
2024/01/11 12:20:54;;;;;;;27.20;11.13;;;1.20;99.90;;;;;;4955082;28;20226;-45
2024/01/11 12:23:21;;;;;;;25.87;11.63;;;1.30;99.90;;;;;;4923885;28;20296;-44
2024/01/11 12:25:48;;;;;;;24.27;10.83;;;1.30;99.90;;;;;;4958783;28;20221;-47
2024/01/11 12:28:15;;;;;;;24.57;11.57;;;1.30;99.90;;;;;;4955431;28;20260;-49
2024/01/11 12:30:42;;;;;;;25.60;10.63;;;1.40;99.90;;;;;;4957695;28;20728;-50
2024/01/11 12:33:09;;;;;;;25.77;12.23;;;1.30;99.90;;;;;;4963595;28;20190;-45
2024/01/11 12:35:37;;;;;;;26.77;12.53;;;1.40;99.90;;;;;;4959914;28;20218;-47